createdAt,value
2018-07-16T00:01:14.186Z,6.90
2018-07-16T00:03:41.657Z,6.67
2018-07-16T00:06:09.037Z,6.90
2018-07-16T00:08:36.360Z,6.70
2018-07-16T00:11:03.695Z,6.90
2018-07-16T00:13:31.068Z,6.40
2018-07-16T00:15:58.411Z,6.40
2018-07-16T00:18:25.793Z,7.23
2018-07-16T00:20:53.173Z,7.30
2018-07-16T00:23:20.555Z,6.80
2018-07-16T00:25:47.963Z,7.50
2018-07-16T00:28:15.344Z,7.53
2018-07-16T00:30:42.720Z,8.70
2018-07-16T00:33:10.805Z,8.90
2018-07-16T00:35:38.171Z,9.10
2018-07-16T00:38:05.545Z,9.30
2018-07-16T00:40:33.133Z,9.03
2018-07-16T00:43:00.559Z,10.33
2018-07-16T00:45:27.919Z,12.03
2018-07-16T00:47:55.261Z,12.50
2018-07-16T00:50:22.568Z,11.93
2018-07-16T00:52:49.898Z,13.17
2018-07-16T00:55:17.251Z,12.20
2018-07-16T00:57:44.562Z,12.00
2018-07-16T01:00:11.959Z,14.13
2018-07-16T01:02:39.341Z,15.50
2018-07-16T01:05:06.682Z,15.30
2018-07-16T01:07:34.018Z,15.53
2018-07-16T01:10:01.352Z,15.77
2018-07-16T01:12:28.720Z,15.10
2018-07-16T01:14:56.042Z,14.63
2018-07-16T01:17:23.342Z,13.77
2018-07-16T01:19:50.693Z,14.93
2018-07-16T01:22:18.057Z,15.67
2018-07-16T01:24:45.410Z,14.80
2018-07-16T01:27:12.765Z,17.77
2018-07-16T01:29:40.103Z,16.57
2018-07-16T01:32:07.466Z,17.10
2018-07-16T01:34:34.774Z,16.27
2018-07-16T01:37:02.106Z,14.33
2018-07-16T01:39:29.711Z,15.33
2018-07-16T01:41:57.018Z,16.63
2018-07-16T01:44:24.540Z,13.90
2018-07-16T01:46:51.842Z,14.80
2018-07-16T01:49:19.141Z,15.00
2018-07-16T01:51:46.476Z,13.80
2018-07-16T01:54:13.779Z,13.50
2018-07-16T01:56:41.102Z,12.50
2018-07-16T01:59:08.476Z,10.93
2018-07-16T02:01:35.801Z,11.00
2018-07-16T02:04:03.593Z,10.67
2018-07-16T02:06:30.938Z,9.60
2018-07-16T02:08:58.493Z,10.00
2018-07-16T02:11:25.796Z,11.27
2018-07-16T02:13:53.108Z,9.83
2018-07-16T02:16:20.524Z,10.47
2018-07-16T02:18:47.817Z,10.70
2018-07-16T02:21:15.232Z,10.77
2018-07-16T02:23:42.545Z,10.90
2018-07-16T02:26:09.864Z,10.53
2018-07-16T02:28:37.219Z,11.67
2018-07-16T02:31:04.573Z,12.83
2018-07-16T02:33:31.898Z,12.70
2018-07-16T02:35:59.214Z,11.37
2018-07-16T02:38:26.545Z,13.07
2018-07-16T02:40:53.904Z,11.70
2018-07-16T02:43:21.275Z,13.60
2018-07-16T02:45:48.620Z,13.60
2018-07-16T02:48:15.974Z,13.83
2018-07-16T02:50:43.296Z,14.30
2018-07-16T02:53:10.592Z,10.90
2018-07-16T02:55:37.938Z,11.43
2018-07-16T02:58:05.582Z,10.37
2018-07-16T03:00:32.895Z,9.77
2018-07-16T03:03:00.211Z,10.17
2018-07-16T03:05:27.525Z,8.97
2018-07-16T03:07:54.872Z,8.53
2018-07-16T03:10:22.263Z,8.43
2018-07-16T03:12:49.621Z,9.10
2018-07-16T03:15:16.915Z,9.00
2018-07-16T03:17:44.244Z,8.53
2018-07-16T03:20:11.589Z,9.43
2018-07-16T03:22:38.902Z,8.83
2018-07-16T03:25:06.543Z,10.30
2018-07-16T03:27:33.913Z,9.47
2018-07-16T03:30:01.262Z,9.80
2018-07-16T03:32:28.573Z,8.47
2018-07-16T03:34:55.888Z,8.60
2018-07-16T03:37:23.180Z,7.43
2018-07-16T03:39:50.588Z,7.90
2018-07-16T03:42:17.926Z,8.03
2018-07-16T03:44:45.281Z,7.37
2018-07-16T03:47:12.573Z,7.63
2018-07-16T03:49:39.924Z,6.83
2018-07-16T03:52:07.388Z,7.50
2018-07-16T03:54:34.695Z,7.87
2018-07-16T03:57:02.056Z,7.23
2018-07-16T03:59:29.840Z,7.03
2018-07-16T04:01:57.256Z,7.43
2018-07-16T04:04:24.599Z,7.07
2018-07-16T04:06:51.892Z,7.03
2018-07-16T04:09:19.154Z,6.67
2018-07-16T04:11:46.529Z,7.57
2018-07-16T04:14:13.858Z,8.40
2018-07-16T04:16:41.139Z,7.90
2018-07-16T04:19:08.446Z,8.27
2018-07-16T04:21:35.847Z,8.40
2018-07-16T04:24:03.158Z,8.20
2018-07-16T04:26:30.717Z,8.50
2018-07-16T04:28:58.092Z,8.50
2018-07-16T04:31:25.500Z,7.50
2018-07-16T04:33:52.831Z,8.03
2018-07-16T04:36:20.179Z,7.60
2018-07-16T04:38:47.495Z,7.47
2018-07-16T04:41:14.958Z,6.80
2018-07-16T04:43:42.273Z,6.27
2018-07-16T04:46:09.570Z,6.07
2018-07-16T04:48:36.843Z,6.03
2018-07-16T04:51:04.567Z,5.60
2018-07-16T04:53:31.923Z,5.70
2018-07-16T04:55:59.566Z,5.30
2018-07-16T04:58:26.877Z,5.30
2018-07-16T05:00:54.205Z,6.17
2018-07-16T05:03:21.572Z,5.60
2018-07-16T05:05:49.100Z,5.40
2018-07-16T05:08:16.449Z,5.93
2018-07-16T05:10:43.815Z,5.80
2018-07-16T05:13:11.301Z,5.90
2018-07-16T05:15:38.636Z,6.17
2018-07-16T05:18:06.165Z,6.03
2018-07-16T05:20:33.521Z,5.63
2018-07-16T05:23:01.136Z,5.87
2018-07-16T05:25:28.533Z,6.80
2018-07-16T05:27:55.946Z,5.30
2018-07-16T05:30:23.516Z,5.03
2018-07-16T05:32:51.034Z,5.43
2018-07-16T05:35:18.415Z,5.30
2018-07-16T05:37:45.750Z,5.60
2018-07-16T05:40:13.072Z,5.67
2018-07-16T05:42:40.421Z,6.10
2018-07-16T05:45:07.998Z,5.20
2018-07-16T05:47:37.460Z,5.30
2018-07-16T05:50:04.822Z,6.67
2018-07-16T05:52:35.426Z,5.40
2018-07-16T05:55:02.806Z,5.20
2018-07-16T05:57:30.187Z,5.27
2018-07-16T05:59:58.039Z,4.53
2018-07-16T06:02:25.367Z,5.10
2018-07-16T06:04:52.724Z,4.20
2018-07-16T06:07:22.273Z,4.53
2018-07-16T06:09:49.587Z,4.33
2018-07-16T06:12:17.040Z,4.60
2018-07-16T06:14:44.370Z,4.40
2018-07-16T06:17:11.657Z,4.90
2018-07-16T06:19:38.961Z,5.20
2018-07-16T06:22:06.365Z,5.00
2018-07-16T06:24:34.276Z,5.30
2018-07-16T06:27:01.559Z,4.60
2018-07-16T06:29:28.915Z,5.07
2018-07-16T06:31:56.582Z,4.53
2018-07-16T06:34:23.909Z,5.47
2018-07-16T06:36:51.221Z,5.13
2018-07-16T06:39:18.564Z,5.30
2018-07-16T06:41:46.550Z,5.10
2018-07-16T06:44:13.869Z,4.90
2018-07-16T06:46:41.333Z,4.30
2018-07-16T06:49:08.661Z,4.50
2018-07-16T06:51:35.946Z,4.80
2018-07-16T06:54:05.842Z,5.20
2018-07-16T06:56:33.165Z,4.53
2018-07-16T06:59:00.503Z,5.27
2018-07-16T07:01:28.045Z,4.33
2018-07-16T07:03:55.380Z,5.27
2018-07-16T07:06:22.688Z,4.10
2018-07-16T07:08:50.029Z,5.00
2018-07-16T07:11:17.359Z,4.33
2018-07-16T07:13:44.890Z,4.43
2018-07-16T07:16:12.241Z,4.47
2018-07-16T07:18:39.631Z,3.87
2018-07-16T07:21:06.919Z,3.90
2018-07-16T07:23:34.425Z,4.90
2018-07-16T07:26:01.789Z,3.87
2018-07-16T07:28:29.166Z,4.87
2018-07-16T07:30:56.700Z,4.40
2018-07-16T07:33:23.986Z,4.47
2018-07-16T07:35:51.323Z,4.70
2018-07-16T07:38:20.717Z,3.90
2018-07-16T07:40:48.649Z,4.20
2018-07-16T07:43:15.982Z,4.20
2018-07-16T07:45:43.402Z,3.83
2018-07-16T07:48:10.732Z,4.30
2018-07-16T07:50:38.179Z,4.03
2018-07-16T07:53:05.731Z,4.07
2018-07-16T07:55:33.144Z,4.30
2018-07-16T07:58:02.389Z,4.40
2018-07-16T08:00:29.696Z,5.00
2018-07-16T08:02:57.077Z,4.80
2018-07-16T08:05:24.620Z,4.87
2018-07-16T08:07:51.913Z,4.50
2018-07-16T08:10:19.362Z,4.63
2018-07-16T08:12:46.790Z,4.30
2018-07-16T08:15:14.159Z,4.50
2018-07-16T08:17:41.742Z,4.50
2018-07-16T08:20:09.232Z,4.17
2018-07-16T08:22:36.623Z,3.90
2018-07-16T08:25:03.989Z,4.47
2018-07-16T08:27:31.346Z,4.13
2018-07-16T08:29:58.697Z,4.57
2018-07-16T08:32:26.088Z,4.10
2018-07-16T08:34:53.458Z,5.40
2018-07-16T08:37:20.837Z,5.10
2018-07-16T08:39:48.813Z,5.43
2018-07-16T08:42:16.245Z,6.10
2018-07-16T08:44:43.576Z,4.57
2018-07-16T08:47:11.033Z,4.70
2018-07-16T08:49:38.379Z,3.90
2018-07-16T08:52:05.779Z,4.40
2018-07-16T08:54:34.963Z,4.03
2018-07-16T08:57:02.288Z,3.90
2018-07-16T08:59:29.614Z,3.67
2018-07-16T09:01:56.964Z,3.53
2018-07-16T09:04:24.354Z,4.67
2018-07-16T09:06:51.827Z,4.50
2018-07-16T09:09:19.163Z,3.93
2018-07-16T09:11:46.506Z,3.67
2018-07-16T09:14:13.908Z,4.40
2018-07-16T09:16:41.333Z,4.50
2018-07-16T09:19:08.662Z,3.50
2018-07-16T09:21:36.021Z,3.77
2018-07-16T09:24:03.916Z,4.77
2018-07-16T09:26:31.339Z,4.67
2018-07-16T09:28:58.778Z,5.00
2018-07-16T09:31:26.236Z,4.90
2018-07-16T09:33:53.649Z,4.10
2018-07-16T09:36:21.092Z,4.33
2018-07-16T09:38:49.245Z,4.53
2018-07-16T09:41:16.625Z,4.63
2018-07-16T09:43:43.991Z,4.20
2018-07-16T09:46:11.310Z,4.37
2018-07-16T09:48:38.680Z,4.50
2018-07-16T09:51:06.013Z,3.90
2018-07-16T09:53:33.372Z,4.77
2018-07-16T09:56:00.773Z,5.50
2018-07-16T09:58:28.196Z,4.63
2018-07-16T10:01:00.951Z,4.60
2018-07-16T10:03:28.324Z,3.90
2018-07-16T10:05:55.685Z,3.87
2018-07-16T10:08:23.102Z,3.53
2018-07-16T10:10:50.405Z,2.80
2018-07-16T10:13:17.736Z,2.73
2018-07-16T10:15:45.093Z,2.80
2018-07-16T10:18:12.454Z,2.70
2018-07-16T10:20:39.955Z,3.90
2018-07-16T10:23:07.338Z,3.20
2018-07-16T10:25:34.678Z,4.67
2018-07-16T10:28:02.533Z,3.30
2018-07-16T10:30:30.097Z,3.10
2018-07-16T10:32:57.451Z,3.20
2018-07-16T10:35:25.813Z,2.57
2018-07-16T10:37:53.324Z,2.20
2018-07-16T10:40:20.710Z,2.90
2018-07-16T10:42:48.087Z,2.37
2018-07-16T10:45:15.421Z,2.70
2018-07-16T10:47:42.749Z,2.70
2018-07-16T10:50:10.161Z,2.13
2018-07-16T10:52:37.503Z,2.33
2018-07-16T10:55:04.995Z,2.63
2018-07-16T10:57:32.323Z,2.50
2018-07-16T11:00:02.672Z,2.20
2018-07-16T11:02:30.776Z,2.20
2018-07-16T11:04:58.114Z,2.73
2018-07-16T11:07:25.444Z,2.70
2018-07-16T11:09:53.799Z,2.80
2018-07-16T11:12:21.224Z,2.63
2018-07-16T11:14:48.666Z,2.80
2018-07-16T11:17:16.050Z,2.67
2018-07-16T11:19:43.421Z,2.57
2018-07-16T11:22:10.935Z,2.43
2018-07-16T11:24:38.549Z,2.20
2018-07-16T11:27:06.207Z,2.20
2018-07-16T11:29:33.521Z,1.80
2018-07-16T11:32:00.939Z,1.90
2018-07-16T11:34:28.273Z,1.97
2018-07-16T11:36:57.454Z,1.87
2018-07-16T11:39:24.865Z,1.90
2018-07-16T11:41:52.206Z,2.07
2018-07-16T11:44:19.494Z,2.07
2018-07-16T11:46:47.958Z,2.27
2018-07-16T11:49:15.329Z,2.40
2018-07-16T11:51:42.690Z,3.00
2018-07-16T11:54:11.886Z,3.10
2018-07-16T11:56:39.236Z,2.30
2018-07-16T11:59:07.768Z,2.80
2018-07-16T12:01:35.153Z,2.57
2018-07-16T12:04:02.625Z,2.20
2018-07-16T12:06:30.812Z,2.20
2018-07-16T12:08:58.701Z,2.50
2018-07-16T12:11:26.133Z,2.70
2018-07-16T12:13:53.579Z,3.20
2018-07-16T12:16:20.994Z,2.87
2018-07-16T12:18:48.387Z,3.03
2018-07-16T12:21:16.800Z,2.47
2018-07-16T12:23:45.072Z,3.17
2018-07-16T12:26:14.267Z,2.37
2018-07-16T12:28:41.685Z,2.67
2018-07-16T12:31:11.398Z,2.70
2018-07-16T12:33:38.694Z,2.23
2018-07-16T12:36:05.989Z,2.60
2018-07-16T12:38:33.368Z,2.60
2018-07-16T12:41:00.699Z,2.60
2018-07-16T12:43:29.739Z,2.37
2018-07-16T12:45:57.097Z,2.60
2018-07-16T12:48:25.263Z,2.50
2018-07-16T12:50:52.963Z,2.50
2018-07-16T12:53:20.286Z,2.30
2018-07-16T12:55:47.618Z,2.40
2018-07-16T12:58:15.899Z,3.10
2018-07-16T13:00:43.967Z,2.80
2018-07-16T13:03:11.353Z,2.40
2018-07-16T13:05:38.685Z,3.00
2018-07-16T13:08:06.063Z,2.20
2018-07-16T13:10:33.394Z,2.63
2018-07-16T13:13:02.238Z,2.50
2018-07-16T13:15:29.563Z,2.70
2018-07-16T13:17:56.930Z,2.50
2018-07-16T13:20:24.349Z,2.40
2018-07-16T13:22:52.670Z,2.97
2018-07-16T13:25:20.040Z,2.70
2018-07-16T13:27:47.365Z,2.60
2018-07-16T13:30:14.730Z,2.63
2018-07-16T13:32:42.244Z,2.60
2018-07-16T13:35:09.748Z,3.40
2018-07-16T13:37:37.085Z,3.33
2018-07-16T13:40:04.476Z,2.87
2018-07-16T13:42:37.569Z,2.83
2018-07-16T13:45:04.966Z,3.20
2018-07-16T13:47:32.308Z,3.20
2018-07-16T13:49:59.660Z,2.97
2018-07-16T13:52:27.781Z,3.03
2018-07-16T13:54:59.886Z,3.10
2018-07-16T13:57:27.228Z,3.10
2018-07-16T13:59:56.442Z,2.90
2018-07-16T14:02:23.705Z,3.40
2018-07-16T14:04:51.930Z,2.73
2018-07-16T14:07:19.309Z,2.90
2018-07-16T14:09:46.587Z,3.27
2018-07-16T14:12:13.965Z,2.80
2018-07-16T14:14:41.316Z,3.00
2018-07-16T14:17:12.541Z,2.83
2018-07-16T14:19:39.877Z,3.30
2018-07-16T14:22:07.383Z,3.63
2018-07-16T14:24:36.481Z,2.87
2018-07-16T14:27:03.791Z,3.00
2018-07-16T14:29:31.163Z,3.03
2018-07-16T14:31:58.509Z,3.03
2018-07-16T14:34:28.684Z,3.10
2018-07-16T14:36:56.020Z,3.70
2018-07-16T14:39:23.768Z,3.27
2018-07-16T14:41:51.551Z,3.07
2018-07-16T14:44:18.925Z,3.40
2018-07-16T14:46:46.258Z,3.30
2018-07-16T14:49:13.626Z,3.10
2018-07-16T14:51:42.988Z,2.93
2018-07-16T14:56:42.955Z,3.23
2018-07-16T14:59:10.541Z,2.87
2018-07-16T15:01:37.975Z,2.80
2018-07-16T15:04:05.349Z,3.03
2018-07-16T15:06:34.470Z,3.27
2018-07-16T15:09:01.768Z,3.07
2018-07-16T15:11:29.096Z,3.27
2018-07-16T15:13:56.854Z,3.60
2018-07-16T15:16:24.197Z,3.30
2018-07-16T15:18:55.310Z,3.57
2018-07-16T15:21:22.835Z,3.37
2018-07-16T15:23:51.008Z,3.37
2018-07-16T15:26:18.576Z,3.07
2018-07-16T15:28:46.725Z,2.80
2018-07-16T15:31:14.046Z,3.10
2018-07-16T15:33:41.387Z,3.20
2018-07-16T15:36:08.691Z,3.47
2018-07-16T15:38:36.046Z,3.10
2018-07-16T15:41:03.413Z,2.90
2018-07-16T15:43:30.729Z,3.40
2018-07-16T15:45:58.334Z,3.10
2018-07-16T15:48:27.570Z,3.13
2018-07-16T15:50:54.939Z,3.53
2018-07-16T15:53:22.322Z,2.80
2018-07-16T15:55:49.654Z,3.20
2018-07-16T15:58:16.989Z,2.67
2018-07-16T16:00:44.276Z,2.67
2018-07-16T16:03:11.599Z,3.03
2018-07-16T16:05:39.083Z,2.80
2018-07-16T16:08:06.473Z,2.83
2018-07-16T16:10:33.779Z,2.60
2018-07-16T16:13:03.186Z,2.90
2018-07-16T16:15:30.579Z,3.03
2018-07-16T16:17:57.975Z,3.00
2018-07-16T16:20:25.371Z,2.53
2018-07-16T16:22:53.999Z,2.57
2018-07-16T16:25:22.106Z,2.70
2018-07-16T16:27:49.553Z,3.07
2018-07-16T16:30:16.948Z,3.00
2018-07-16T16:32:44.410Z,3.10
2018-07-16T16:35:11.896Z,3.17
2018-07-16T16:37:39.266Z,3.20
2018-07-16T16:40:06.640Z,2.83
2018-07-16T16:42:34.103Z,2.73
2018-07-16T16:45:01.388Z,3.73
2018-07-16T16:47:29.038Z,3.07
2018-07-16T16:49:56.396Z,3.00
2018-07-16T16:52:23.708Z,2.80
2018-07-16T16:54:51.052Z,2.83
2018-07-16T16:57:18.407Z,3.47
2018-07-16T16:59:45.937Z,3.30
2018-07-16T17:02:13.279Z,3.67
2018-07-16T17:04:40.671Z,3.30
2018-07-16T17:07:08.032Z,2.83
2018-07-16T17:09:38.188Z,3.03
2018-07-16T17:12:05.797Z,2.90
2018-07-16T17:14:33.150Z,2.90
2018-07-16T17:17:00.630Z,3.00
2018-07-16T17:19:28.174Z,3.47
2018-07-16T17:21:55.496Z,3.10
2018-07-16T17:24:23.779Z,2.60
2018-07-16T17:26:51.294Z,3.43
2018-07-16T17:29:19.075Z,2.87
2018-07-16T17:31:46.413Z,2.70
2018-07-16T17:34:13.745Z,3.00
2018-07-16T17:36:42.077Z,3.00
2018-07-16T17:39:09.940Z,3.53
2018-07-16T17:41:37.242Z,3.17
2018-07-16T17:44:04.701Z,2.60
2018-07-16T17:46:32.303Z,3.20
2018-07-16T17:48:59.694Z,3.00
2018-07-16T17:51:26.979Z,2.93
2018-07-16T17:53:54.285Z,3.10
2018-07-16T17:56:24.473Z,3.23
2018-07-16T17:58:51.907Z,3.30
2018-07-16T18:01:19.318Z,3.10
2018-07-16T18:03:47.320Z,3.77
2018-07-16T18:06:14.934Z,3.70
2018-07-16T18:08:42.715Z,3.53
2018-07-16T18:11:10.198Z,3.50
2018-07-16T18:13:37.563Z,3.43
2018-07-16T18:16:05.030Z,3.27
2018-07-16T18:18:32.621Z,3.67
2018-07-16T18:20:59.991Z,3.93
2018-07-16T18:23:27.319Z,3.90
2018-07-16T18:25:54.619Z,4.27
2018-07-16T18:28:22.020Z,4.07
2018-07-16T18:30:49.311Z,3.17
2018-07-16T18:33:16.645Z,3.93
2018-07-16T18:35:44.059Z,3.60
2018-07-16T18:38:13.376Z,4.00
2018-07-16T18:40:41.668Z,3.20
2018-07-16T18:43:08.951Z,3.70
2018-07-16T18:45:37.303Z,3.50
2018-07-16T18:48:05.359Z,3.80
2018-07-16T18:50:32.770Z,3.60
2018-07-16T18:53:00.348Z,3.53
2018-07-16T18:55:29.588Z,3.33
2018-07-16T18:57:56.943Z,3.67
2018-07-16T19:00:24.224Z,3.50
2018-07-16T19:02:52.265Z,3.80
2018-07-16T19:05:19.609Z,3.60
2018-07-16T19:07:46.964Z,3.87
2018-07-16T19:10:14.418Z,3.30
2018-07-16T19:12:41.773Z,4.10
2018-07-16T19:15:14.370Z,4.03
2018-07-16T19:17:41.856Z,3.57
2018-07-16T19:20:09.263Z,3.93
2018-07-16T19:22:36.590Z,4.07
2018-07-16T19:25:04.191Z,3.87
2018-07-16T19:27:31.680Z,4.30
2018-07-16T19:29:59.103Z,4.57
2018-07-16T19:32:26.483Z,4.00
2018-07-16T19:34:53.869Z,4.73
2018-07-16T19:37:21.174Z,4.17
2018-07-16T19:39:48.765Z,3.83
2018-07-16T19:42:16.178Z,3.80
2018-07-16T19:44:43.745Z,4.50
2018-07-16T19:47:11.092Z,4.37
2018-07-16T19:49:38.457Z,4.40
2018-07-16T19:52:05.832Z,4.50
2018-07-16T19:54:33.203Z,4.80
2018-07-16T19:57:00.692Z,4.50
2018-07-16T19:59:27.899Z,5.90
2018-07-16T20:01:55.922Z,5.43
2018-07-16T20:04:23.354Z,4.70
2018-07-16T20:06:54.990Z,5.10
2018-07-16T20:09:22.432Z,4.37
2018-07-16T20:11:49.693Z,4.20
2018-07-16T20:14:17.050Z,4.83
2018-07-16T20:16:44.443Z,4.40
2018-07-16T20:19:12.372Z,4.00
2018-07-16T20:21:39.749Z,4.20
2018-07-16T20:24:07.122Z,3.67
2018-07-16T20:26:34.508Z,4.77
2018-07-16T20:29:01.856Z,4.70
2018-07-16T20:31:29.236Z,4.70
2018-07-16T20:33:56.568Z,4.30
2018-07-16T20:36:23.890Z,4.40
2018-07-16T20:38:51.247Z,4.10
2018-07-16T20:41:18.662Z,4.63
2018-07-16T20:43:46.030Z,4.17
2018-07-16T20:46:13.346Z,5.07
2018-07-16T20:48:40.916Z,4.40
2018-07-16T20:51:08.569Z,4.70
2018-07-16T20:53:35.884Z,4.70
2018-07-16T20:56:04.265Z,5.10
2018-07-16T20:58:31.636Z,4.83
2018-07-16T21:00:58.953Z,5.30
2018-07-16T21:03:26.348Z,5.07
2018-07-16T21:05:53.727Z,4.90
2018-07-16T21:08:21.097Z,4.60
2018-07-16T21:10:48.436Z,5.57
2018-07-16T21:13:15.736Z,5.03
2018-07-16T21:15:43.980Z,5.00
2018-07-16T21:18:11.512Z,4.50
2018-07-16T21:20:38.861Z,5.30
2018-07-16T21:23:06.732Z,4.87
2018-07-16T21:25:34.148Z,4.20
2018-07-16T21:28:01.792Z,4.87
2018-07-16T21:30:29.187Z,4.63
2018-07-16T21:32:56.529Z,5.33
2018-07-16T21:35:23.936Z,4.70
2018-07-16T21:37:51.349Z,5.10
2018-07-16T21:40:18.876Z,4.90
2018-07-16T21:42:46.258Z,5.00
2018-07-16T21:45:13.830Z,5.07
2018-07-16T21:47:41.210Z,4.60
2018-07-16T21:50:08.601Z,5.10
2018-07-16T21:52:35.962Z,5.60
2018-07-16T21:55:03.428Z,5.50
2018-07-16T21:57:30.809Z,5.07
2018-07-16T21:59:58.190Z,5.63
2018-07-16T22:02:25.840Z,5.00
2018-07-16T22:04:53.213Z,5.00
2018-07-16T22:07:20.620Z,5.47
2018-07-16T22:09:47.951Z,5.70
2018-07-16T22:12:15.321Z,4.97
2018-07-16T22:14:42.678Z,5.00
2018-07-16T22:17:10.328Z,5.20
2018-07-16T22:19:37.663Z,4.80
2018-07-16T22:22:05.227Z,5.10
2018-07-16T22:24:32.568Z,5.47
2018-07-16T22:26:59.931Z,5.03
2018-07-16T22:29:27.335Z,5.43
2018-07-16T22:31:54.902Z,6.00
2018-07-16T22:34:22.257Z,5.13
2018-07-16T22:36:49.610Z,5.07
2018-07-16T22:39:16.928Z,4.90
2018-07-16T22:41:44.260Z,5.73
2018-07-16T22:44:11.632Z,5.57
2018-07-16T22:46:38.948Z,5.37
2018-07-16T22:49:06.290Z,6.13
2018-07-16T22:51:33.639Z,4.83
2018-07-16T22:54:01.003Z,6.13
2018-07-16T22:56:28.368Z,5.40
2018-07-16T22:58:55.719Z,5.40
2018-07-16T23:01:23.073Z,5.53
2018-07-16T23:03:50.419Z,5.60
2018-07-16T23:06:17.731Z,6.33
2018-07-16T23:08:45.111Z,5.83
2018-07-16T23:11:12.570Z,5.60
2018-07-16T23:13:39.903Z,5.50
2018-07-16T23:16:07.233Z,6.10
2018-07-16T23:18:34.526Z,5.90
2018-07-16T23:21:01.818Z,5.80
2018-07-16T23:23:29.134Z,5.40
2018-07-16T23:25:56.470Z,5.53
2018-07-16T23:28:23.772Z,5.43
2018-07-16T23:30:51.068Z,6.50
2018-07-16T23:33:18.423Z,5.67
2018-07-16T23:35:45.710Z,6.13
2018-07-16T23:38:13.109Z,5.80
2018-07-16T23:40:40.444Z,6.57
2018-07-16T23:43:07.758Z,5.70
2018-07-16T23:45:35.077Z,5.80
2018-07-16T23:48:02.420Z,5.70
2018-07-16T23:50:29.784Z,6.63
2018-07-16T23:52:57.194Z,6.40
2018-07-16T23:55:24.513Z,6.13
2018-07-16T23:57:52.125Z,6.10
